Time;durP1;ratioP1;P1;durP2;ratioP2;P2;SDS_P1;SDS_P2;PMS_P1;PMS_P2;Temp;Humidity;BMP_temperature;BMP_pressure;BME280_temperature;BME280_humidity;BME280_pressure;Samples;Min_cycle;Max_cycle;Signal;HPM_P1;HPM_P2
2023/07/16 00:02:20;;;;;;;10.18;2.75;;;17.20;99.90;;;;;;5038926;28;20041;-80
2023/07/16 00:04:47;;;;;;;6.22;2.15;;;17.20;99.90;;;;;;5054865;28;20037;-80
2023/07/16 00:07:13;;;;;;;15.05;2.00;;;17.20;99.90;;;;;;5071436;28;20036;-80
2023/07/16 00:09:40;;;;;;;6.65;1.98;;;17.10;99.90;;;;;;5054788;28;20564;-80
2023/07/16 00:12:08;;;;;;;6.18;2.25;;;17.10;99.90;;;;;;5055312;28;20508;-80
2023/07/16 00:14:35;;;;;;;5.90;2.25;;;17.20;99.90;;;;;;5071572;28;20109;-80
2023/07/16 00:17:02;;;;;;;7.35;2.65;;;17.10;99.90;;;;;;5070911;28;20032;-80
2023/07/16 00:19:28;;;;;;;5.72;2.20;;;17.00;99.90;;;;;;5104746;28;20039;-80
2023/07/16 00:21:55;;;;;;;6.22;2.20;;;17.00;99.90;;;;;;5087403;28;20040;-80
2023/07/16 00:24:22;;;;;;;6.38;1.85;;;17.10;99.90;;;;;;5088244;28;20037;-80
2023/07/16 00:26:48;;;;;;;8.82;2.15;;;17.00;99.90;;;;;;5087454;28;20032;-80
2023/07/16 00:29:15;;;;;;;7.88;2.35;;;16.90;99.90;;;;;;5087846;28;20094;-80
2023/07/16 00:31:42;;;;;;;9.27;2.20;;;17.00;99.90;;;;;;5070711;28;20075;-79
2023/07/16 00:34:08;;;;;;;8.10;2.13;;;16.90;99.90;;;;;;5087706;28;20075;-79
2023/07/16 00:36:35;;;;;;;9.95;2.50;;;16.80;99.90;;;;;;5070706;28;20040;-80
2023/07/16 00:39:02;;;;;;;4.95;1.90;;;16.80;99.90;;;;;;5087370;28;20093;-79
2023/07/16 00:41:28;;;;;;;7.53;2.17;;;16.80;99.90;;;;;;5070999;28;20154;-80
2023/07/16 00:43:55;;;;;;;11.70;2.53;;;16.80;99.90;;;;;;5070936;28;20047;-79
2023/07/16 00:46:23;;;;;;;8.20;2.22;;;16.80;99.90;;;;;;5086748;28;20056;-79
2023/07/16 00:48:50;;;;;;;9.73;1.98;;;16.70;99.90;;;;;;5070605;28;20056;-80
2023/07/16 00:51:18;;;;;;;8.85;2.30;;;16.70;99.90;;;;;;5087822;28;20044;-79
2023/07/16 00:53:45;;;;;;;8.85;2.30;;;16.70;99.90;;;;;;5070111;28;20047;-79
2023/07/16 00:56:17;;;;;;;8.05;2.38;;;16.70;99.90;;;;;;5070464;28;20041;-80
2023/07/16 00:58:44;;;;;;;8.95;2.10;;;16.70;99.90;;;;;;5070511;28;20404;-79
2023/07/16 01:01:10;;;;;;;7.00;2.20;;;16.60;99.90;;;;;;5070471;28;20515;-80
2023/07/16 01:03:38;;;;;;;8.07;2.38;;;16.60;99.90;;;;;;5070471;28;20044;-79
2023/07/16 01:06:13;;;;;;;13.45;2.72;;;16.60;99.90;;;;;;5070026;28;20677;-79
2023/07/16 01:08:55;;;;;;;6.63;2.00;;;16.60;99.90;;;;;;5070282;28;20090;-80
2023/07/16 01:11:23;;;;;;;8.70;2.30;;;16.60;99.90;;;;;;5070493;28;20412;-79
2023/07/16 01:13:51;;;;;;;10.38;2.20;;;16.60;99.90;;;;;;5086350;28;20500;-79
2023/07/16 01:16:23;;;;;;;6.50;2.40;;;16.60;99.90;;;;;;5120313;28;20131;-80
2023/07/16 01:18:50;;;;;;;10.90;2.70;;;16.50;99.90;;;;;;5070003;28;20136;-79
2023/07/16 01:21:21;;;;;;;9.30;2.10;;;16.50;99.90;;;;;;5086841;28;20151;-79
2023/07/16 01:23:56;;;;;;;8.38;2.63;;;16.50;99.90;;;;;;5070112;28;20109;-80
2023/07/16 01:26:44;;;;;;;8.30;2.13;;;16.50;99.90;;;;;;5070006;28;20033;-79
2023/07/16 01:29:29;;;;;;;6.65;2.10;;;16.50;99.90;;;;;;5069773;28;20102;-79
2023/07/16 01:31:59;;;;;;;8.05;2.38;;;16.50;99.90;;;;;;5070170;28;20044;-79
2023/07/16 01:34:29;;;;;;;8.45;2.42;;;16.50;99.90;;;;;;5070165;28;20395;-79
2023/07/16 01:36:56;;;;;;;10.10;2.40;;;16.40;99.90;;;;;;5086057;28;20043;-79
2023/07/16 01:39:22;;;;;;;5.50;2.10;;;16.50;99.90;;;;;;5103139;28;20040;-79
2023/07/16 01:41:49;;;;;;;6.63;3.13;;;16.40;99.90;;;;;;5120392;28;20041;-79
2023/07/16 01:44:16;;;;;;;12.32;2.42;;;16.40;99.90;;;;;;5069614;28;20040;-79
2023/07/16 01:46:42;;;;;;;7.50;2.20;;;16.30;99.90;;;;;;5069349;28;20503;-79
2023/07/16 01:49:09;;;;;;;7.20;2.25;;;16.30;99.90;;;;;;5069624;28;20045;-80
2023/07/16 01:51:36;;;;;;;7.88;2.20;;;16.30;99.90;;;;;;5086031;28;20041;-79
2023/07/16 01:54:03;;;;;;;7.07;2.13;;;16.30;99.90;;;;;;5069388;28;20056;-79
2023/07/16 01:56:29;;;;;;;7.78;2.20;;;16.30;99.90;;;;;;5086404;28;20052;-79
2023/07/16 01:58:56;;;;;;;8.05;1.80;;;16.20;99.90;;;;;;5102536;28;20040;-79
2023/07/16 02:01:23;;;;;;;7.10;2.50;;;16.20;99.90;;;;;;5103352;28;20076;-79
2023/07/16 02:03:49;;;;;;;10.20;2.58;;;16.20;99.90;;;;;;5069587;28;20095;-80
2023/07/16 02:06:16;;;;;;;7.82;2.15;;;16.30;99.90;;;;;;5085631;28;20033;-79
2023/07/16 02:08:43;;;;;;;9.85;2.28;;;16.30;99.90;;;;;;5069234;28;20048;-79
2023/07/16 02:11:09;;;;;;;7.00;2.47;;;16.20;99.90;;;;;;5086510;28;20119;-79
2023/07/16 02:13:36;;;;;;;5.43;2.33;;;16.20;99.90;;;;;;5073853;28;20109;-80
2023/07/16 02:16:03;;;;;;;5.78;2.10;;;16.30;99.90;;;;;;5089979;28;20043;-79
2023/07/16 02:18:29;;;;;;;8.00;2.80;;;16.30;99.90;;;;;;5106414;28;20525;-79
2023/07/16 02:20:56;;;;;;;9.40;2.30;;;16.30;99.90;;;;;;5090167;28;20386;-79
2023/07/16 02:23:23;;;;;;;6.82;2.15;;;16.30;99.90;;;;;;5090551;28;20040;-79
2023/07/16 02:25:49;;;;;;;9.30;2.50;;;16.30;99.90;;;;;;5090310;28;20112;-79
2023/07/16 02:28:16;;;;;;;8.68;2.40;;;16.30;99.90;;;;;;5072992;28;20032;-79
2023/07/16 02:30:43;;;;;;;5.57;2.00;;;16.30;99.90;;;;;;5089444;28;20097;-79
2023/07/16 02:33:10;;;;;;;5.22;2.58;;;16.30;99.90;;;;;;5105325;28;20051;-79
2023/07/16 02:35:36;;;;;;;6.63;2.40;;;16.30;99.90;;;;;;5073372;28;20491;-79
2023/07/16 02:38:03;;;;;;;16.70;2.85;;;16.30;99.90;;;;;;5089734;28;20584;-79
2023/07/16 02:40:30;;;;;;;7.25;2.63;;;16.30;99.90;;;;;;5089585;28;19930;-79
2023/07/16 02:42:56;;;;;;;12.90;2.72;;;16.20;99.90;;;;;;5089932;28;20040;-79
2023/07/16 02:45:23;;;;;;;8.40;2.63;;;16.30;99.90;;;;;;5072861;28;20052;-79
2023/07/16 02:47:50;;;;;;;8.35;2.60;;;16.20;99.90;;;;;;5073406;28;20044;-79
2023/07/16 02:50:17;;;;;;;10.77;3.30;;;16.20;99.90;;;;;;5072256;28;20044;-79
2023/07/16 02:52:43;;;;;;;9.38;3.30;;;16.20;99.90;;;;;;5089811;28;20472;-79
2023/07/16 02:55:10;;;;;;;10.82;2.97;;;16.20;99.90;;;;;;5089619;28;20044;-79
2023/07/16 02:57:37;;;;;;;11.13;2.90;;;16.20;99.90;;;;;;5089682;28;20080;-79
2023/07/16 03:00:04;;;;;;;10.15;3.20;;;16.20;99.90;;;;;;5088923;28;20043;-79
2023/07/16 03:02:31;;;;;;;8.20;3.33;;;16.20;99.90;;;;;;5089316;28;20068;-80
2023/07/16 03:04:57;;;;;;;9.07;3.08;;;16.10;99.90;;;;;;5073092;28;20082;-79
2023/07/16 03:07:24;;;;;;;7.88;3.13;;;16.10;99.90;;;;;;5072695;28;20147;-79
2023/07/16 03:09:51;;;;;;;7.85;3.10;;;16.10;99.90;;;;;;5072277;28;20113;-79
2023/07/16 03:12:18;;;;;;;7.55;3.08;;;16.10;99.90;;;;;;5072065;28;20040;-79
2023/07/16 03:14:44;;;;;;;8.20;2.92;;;16.10;99.90;;;;;;5072120;28;20561;-79
2023/07/16 03:17:11;;;;;;;9.57;3.05;;;16.10;99.90;;;;;;5071530;28;20147;-79
2023/07/16 03:19:38;;;;;;;7.80;3.13;;;16.00;99.90;;;;;;5072007;28;20051;-80
2023/07/16 03:22:04;;;;;;;7.90;3.25;;;16.10;99.90;;;;;;5071826;28;20129;-80
2023/07/16 03:24:31;;;;;;;10.65;3.00;;;16.00;99.90;;;;;;5070967;28;20028;-79
2023/07/16 03:26:58;;;;;;;11.27;2.70;;;16.00;99.90;;;;;;5072677;28;20055;-79
2023/07/16 03:29:24;;;;;;;7.10;2.95;;;16.00;99.90;;;;;;5072299;28;20109;-80
2023/07/16 03:31:51;;;;;;;12.25;3.10;;;15.90;99.90;;;;;;5071425;28;20082;-80
2023/07/16 03:34:18;;;;;;;12.25;3.35;;;15.90;99.90;;;;;;5071775;28;20071;-79
2023/07/16 03:36:44;;;;;;;9.15;2.70;;;15.90;99.90;;;;;;5072449;28;20051;-79
2023/07/16 03:39:11;;;;;;;9.52;2.90;;;15.90;99.90;;;;;;5088380;28;20051;-79
2023/07/16 03:41:38;;;;;;;9.40;3.22;;;15.80;99.90;;;;;;5070665;28;20488;-79
2023/07/16 03:44:05;;;;;;;8.60;2.90;;;15.90;99.90;;;;;;5036135;28;20106;-79
2023/07/16 03:46:31;;;;;;;13.07;3.10;;;15.90;99.90;;;;;;5035389;28;20060;-79
2023/07/16 03:48:58;;;;;;;8.55;2.97;;;15.90;99.90;;;;;;5035904;28;20056;-79
2023/07/16 03:51:25;;;;;;;6.85;3.20;;;15.90;99.90;;;;;;5038427;28;20037;-79
2023/07/16 03:53:51;;;;;;;10.65;3.50;;;15.90;99.90;;;;;;5072149;28;20048;-80
2023/07/16 03:56:18;;;;;;;8.13;3.00;;;15.90;99.90;;;;;;5071417;28;20041;-79
2023/07/16 03:58:45;;;;;;;8.32;3.30;;;15.90;99.90;;;;;;5071850;28;20044;-80
2023/07/16 04:01:11;;;;;;;10.90;3.22;;;15.90;99.90;;;;;;5088512;28;20041;-79
2023/07/16 04:03:38;;;;;;;10.15;3.28;;;16.00;99.90;;;;;;5071460;28;20032;-79
2023/07/16 04:06:09;;;;;;;9.30;3.08;;;15.90;99.90;;;;;;5088207;28;20036;-79
2023/07/16 04:08:36;;;;;;;9.10;3.15;;;15.90;99.90;;;;;;5071606;28;20408;-79
2023/07/16 04:11:06;;;;;;;9.60;3.30;;;16.00;99.90;;;;;;5088489;28;20786;-79
2023/07/16 04:13:33;;;;;;;10.98;3.65;;;16.00;99.90;;;;;;5087502;28;20044;-79
2023/07/16 04:16:00;;;;;;;6.55;3.25;;;16.00;99.90;;;;;;5071705;28;20044;-80
2023/07/16 04:18:27;;;;;;;7.57;3.28;;;15.90;99.90;;;;;;5071242;28;20047;-79
2023/07/16 04:20:53;;;;;;;12.57;2.88;;;15.90;99.90;;;;;;5071908;28;20041;-79
2023/07/16 04:23:20;;;;;;;8.65;3.17;;;16.00;99.90;;;;;;5087385;28;20040;-79
2023/07/16 04:25:50;;;;;;;7.97;3.03;;;16.00;99.90;;;;;;5104604;28;20037;-79
2023/07/16 04:28:17;;;;;;;9.93;3.17;;;16.00;99.90;;;;;;5087311;28;20040;-79
2023/07/16 04:30:43;;;;;;;12.13;2.97;;;16.00;99.90;;;;;;5071722;28;20040;-79
2023/07/16 04:33:10;;;;;;;7.22;3.08;;;16.00;99.90;;;;;;5104623;28;20033;-79
2023/07/16 04:35:37;;;;;;;11.32;3.83;;;16.00;99.90;;;;;;5087073;28;20131;-79
2023/07/16 04:38:03;;;;;;;7.53;2.78;;;16.00;99.90;;;;;;5087852;28;20047;-79
2023/07/16 04:40:30;;;;;;;8.60;3.38;;;16.00;99.90;;;;;;5070528;28;20094;-79
2023/07/16 04:42:57;;;;;;;7.20;3.20;;;16.00;99.90;;;;;;5088016;28;20051;-79
2023/07/16 04:45:24;;;;;;;10.13;3.47;;;16.10;99.90;;;;;;5086848;28;20135;-79
2023/07/16 04:47:50;;;;;;;9.35;3.35;;;16.00;99.90;;;;;;5104163;28;20139;-80
2023/07/16 04:50:17;;;;;;;8.82;3.38;;;16.00;99.90;;;;;;5103997;28;20498;-79
2023/07/16 04:52:45;;;;;;;16.58;4.28;;;16.10;99.90;;;;;;5087383;28;20475;-79
2023/07/16 04:55:12;;;;;;;11.63;3.38;;;16.10;99.90;;;;;;5087553;28;20495;-79
2023/07/16 04:57:39;;;;;;;9.75;3.20;;;16.10;99.90;;;;;;5070189;28;20043;-79
2023/07/16 05:00:07;;;;;;;9.20;3.30;;;16.10;99.90;;;;;;5087055;28;20059;-79
2023/07/16 05:02:34;;;;;;;9.55;3.25;;;16.20;99.90;;;;;;5070532;28;20047;-79
2023/07/16 05:05:01;;;;;;;9.13;3.22;;;16.20;99.90;;;;;;5087091;28;20400;-79
2023/07/16 05:07:27;;;;;;;8.73;3.38;;;16.20;99.90;;;;;;5103356;28;20047;-79
2023/07/16 05:09:54;;;;;;;11.85;3.53;;;16.20;99.90;;;;;;5070817;28;20135;-79
2023/07/16 05:12:21;;;;;;;9.02;3.15;;;16.30;99.90;;;;;;5070937;28;20044;-79
2023/07/16 05:14:48;;;;;;;8.43;3.15;;;16.30;99.90;;;;;;5086788;28;20060;-79
2023/07/16 05:17:15;;;;;;;6.93;3.40;;;16.30;99.90;;;;;;5087202;28;20040;-79
2023/07/16 05:19:42;;;;;;;8.88;3.38;;;16.40;99.90;;;;;;5070178;28;20400;-79
2023/07/16 05:22:09;;;;;;;11.13;3.35;;;16.40;99.90;;;;;;5086756;28;20488;-77
2023/07/16 05:24:35;;;;;;;7.85;3.20;;;16.40;99.90;;;;;;5086687;28;20120;-77
2023/07/16 05:27:03;;;;;;;10.13;3.42;;;16.50;99.90;;;;;;5086708;28;20045;-79
2023/07/16 05:29:30;;;;;;;8.00;3.20;;;16.50;99.90;;;;;;5069708;28;20408;-79
2023/07/16 05:31:56;;;;;;;8.63;3.50;;;16.60;99.90;;;;;;5070381;28;20052;-80
2023/07/16 05:34:23;;;;;;;8.27;3.13;;;16.60;99.90;;;;;;5086584;28;20055;-80
2023/07/16 05:36:53;;;;;;;10.70;3.40;;;16.70;99.90;;;;;;5069423;28;20052;-79
2023/07/16 05:39:20;;;;;;;11.15;3.35;;;16.70;99.90;;;;;;5070283;28;20532;-78
2023/07/16 05:41:47;;;;;;;12.63;3.22;;;16.80;99.90;;;;;;5070070;28;20036;-79
2023/07/16 05:44:14;;;;;;;12.55;3.03;;;16.80;99.90;;;;;;5086495;28;20059;-79
2023/07/16 05:46:41;;;;;;;10.57;3.30;;;16.90;99.90;;;;;;5085167;28;20048;-79
2023/07/16 05:49:08;;;;;;;9.80;2.88;;;16.90;99.90;;;;;;5103332;28;20190;-80
2023/07/16 05:51:34;;;;;;;7.38;3.20;;;17.00;99.90;;;;;;5086491;28;20544;-79
2023/07/16 05:54:02;;;;;;;6.03;2.47;;;17.00;99.90;;;;;;5070040;28;20044;-79
2023/07/16 05:56:29;;;;;;;11.07;3.30;;;17.00;99.90;;;;;;5085748;28;20040;-79
2023/07/16 05:58:56;;;;;;;7.85;2.75;;;17.10;99.90;;;;;;5069667;28;20404;-79
2023/07/16 06:01:22;;;;;;;8.93;2.75;;;17.20;99.90;;;;;;5086457;28;20044;-79
2023/07/16 06:03:49;;;;;;;11.23;2.90;;;17.20;99.90;;;;;;5069450;28;20512;-79
2023/07/16 06:06:16;;;;;;;9.48;2.63;;;17.20;99.90;;;;;;5086260;28;20032;-79
2023/07/16 06:08:43;;;;;;;9.63;2.97;;;17.30;99.90;;;;;;5069478;28;20131;-79
2023/07/16 06:11:10;;;;;;;7.88;2.95;;;17.30;99.90;;;;;;5086500;28;20040;-79
2023/07/16 06:13:36;;;;;;;8.20;3.03;;;17.30;99.90;;;;;;5069613;28;20042;-80
2023/07/16 06:16:04;;;;;;;7.60;2.65;;;17.30;99.90;;;;;;5102771;28;20047;-80
2023/07/16 06:18:31;;;;;;;9.27;3.28;;;17.40;99.90;;;;;;5102404;28;20049;-79
2023/07/16 06:20:58;;;;;;;9.52;3.13;;;17.50;99.90;;;;;;5086330;28;20033;-80
2023/07/16 06:23:25;;;;;;;13.75;3.38;;;17.40;99.90;;;;;;5086256;28;20039;-79
2023/07/16 06:25:58;;;;;;;7.68;2.85;;;17.60;99.90;;;;;;5102277;28;20495;-80
2023/07/16 06:28:24;;;;;;;6.80;2.95;;;17.60;99.90;;;;;;5085787;28;20411;-79
2023/07/16 06:30:52;;;;;;;14.45;3.35;;;17.60;99.90;;;;;;5086046;28;20040;-80
2023/07/16 06:33:19;;;;;;;9.70;3.10;;;17.70;99.90;;;;;;5086211;28;20405;-79
2023/07/16 06:35:47;;;;;;;9.05;3.10;;;17.70;99.90;;;;;;5077651;28;20086;-79
2023/07/16 06:38:14;;;;;;;8.60;3.10;;;17.70;99.90;;;;;;5080818;28;20499;-79
2023/07/16 06:40:49;;;;;;;8.13;2.88;;;17.80;99.90;;;;;;5094426;28;20036;-80
2023/07/16 06:43:16;;;;;;;11.82;3.35;;;18.00;99.90;;;;;;5097436;28;20047;-80
2023/07/16 06:45:43;;;;;;;9.90;3.55;;;18.10;99.90;;;;;;5077605;28;20052;-80
2023/07/16 06:48:10;;;;;;;12.50;3.42;;;18.10;99.90;;;;;;5060111;28;20562;-80
2023/07/16 06:50:38;;;;;;;7.43;3.60;;;18.10;99.90;;;;;;5096286;28;20530;-80
2023/07/16 06:53:04;;;;;;;11.07;3.30;;;18.20;99.90;;;;;;5069352;28;20047;-80
2023/07/16 06:55:31;;;;;;;10.80;3.40;;;18.30;99.90;;;;;;5056685;28;20498;-80
2023/07/16 06:57:58;;;;;;;8.93;3.22;;;18.40;99.90;;;;;;5074490;28;20131;-80
2023/07/16 07:00:25;;;;;;;7.15;2.83;;;18.50;99.90;;;;;;5074082;28;20044;-80
2023/07/16 07:02:51;;;;;;;9.35;3.22;;;18.50;99.90;;;;;;5089475;28;20119;-82
2023/07/16 07:05:18;;;;;;;11.30;2.97;;;18.60;99.90;;;;;;5089635;28;20127;-81
2023/07/16 07:07:45;;;;;;;12.98;3.30;;;18.60;99.90;;;;;;5072621;28;20040;-80
2023/07/16 07:10:13;;;;;;;9.25;3.40;;;18.60;99.90;;;;;;5105576;28;20052;-80
2023/07/16 07:12:40;;;;;;;8.48;3.33;;;18.50;99.90;;;;;;5089562;28;20541;-80
2023/07/16 07:15:08;;;;;;;9.80;3.65;;;18.50;99.90;;;;;;5089155;28;20048;-79
2023/07/16 07:17:35;;;;;;;8.00;3.42;;;18.60;99.90;;;;;;5089624;28;20082;-80
2023/07/16 07:20:02;;;;;;;10.90;3.53;;;18.60;99.90;;;;;;5088221;28;20251;-80
2023/07/16 07:22:29;;;;;;;10.40;3.53;;;18.70;99.90;;;;;;5089349;28;20044;-80
2023/07/16 07:24:56;;;;;;;9.85;3.65;;;18.70;99.90;;;;;;5086545;28;20068;-79
2023/07/16 07:27:23;;;;;;;6.70;3.10;;;18.80;99.90;;;;;;5069251;28;20093;-80
2023/07/16 07:29:55;;;;;;;8.55;3.30;;;18.70;99.90;;;;;;5037932;28;20040;-79
2023/07/16 07:32:22;;;;;;;10.60;3.83;;;18.80;99.90;;;;;;5071478;28;20385;-80
2023/07/16 07:34:50;;;;;;;8.52;3.17;;;19.00;99.90;;;;;;5071124;28;20051;-80
2023/07/16 07:37:16;;;;;;;9.10;3.30;;;19.10;99.90;;;;;;5121371;28;20047;-80
2023/07/16 07:39:45;;;;;;;10.80;3.20;;;19.20;99.90;;;;;;5087870;28;20036;-79
2023/07/16 07:42:12;;;;;;;9.15;3.40;;;19.30;99.90;;;;;;5071014;28;20583;-79
2023/07/16 07:44:38;;;;;;;10.52;3.10;;;19.30;99.90;;;;;;5087272;28;20036;-79
2023/07/16 07:47:07;;;;;;;7.57;3.40;;;19.30;99.90;;;;;;5070579;28;20515;-80
2023/07/16 07:49:34;;;;;;;8.93;3.47;;;19.20;99.90;;;;;;5104317;28;20048;-80
2023/07/16 07:52:01;;;;;;;7.05;3.15;;;19.20;99.90;;;;;;5069939;28;20041;-80
2023/07/16 07:54:27;;;;;;;7.97;2.95;;;19.30;99.90;;;;;;5071237;28;20153;-80
2023/07/16 07:56:54;;;;;;;9.43;3.10;;;19.50;99.90;;;;;;5086990;28;20044;-79
2023/07/16 07:59:21;;;;;;;7.78;3.63;;;19.70;99.90;;;;;;5092059;28;20075;-80
2023/07/16 08:01:47;;;;;;;8.85;3.20;;;19.90;99.90;;;;;;5086614;28;20118;-79
2023/07/16 08:04:14;;;;;;;7.85;3.20;;;20.00;99.90;;;;;;5087285;28;20040;-79
2023/07/16 08:06:41;;;;;;;9.88;3.67;;;19.90;99.90;;;;;;5070337;28;20127;-79
2023/07/16 08:09:08;;;;;;;8.07;3.95;;;19.80;99.90;;;;;;5102758;28;20144;-79
2023/07/16 08:11:34;;;;;;;7.75;3.45;;;19.80;99.90;;;;;;5070489;28;20032;-79
2023/07/16 08:14:01;;;;;;;6.65;3.15;;;19.80;99.90;;;;;;5103464;28;20075;-79
2023/07/16 08:16:28;;;;;;;7.50;3.30;;;19.80;99.90;;;;;;5070715;28;20041;-79
2023/07/16 08:18:54;;;;;;;8.00;3.10;;;19.70;99.90;;;;;;5086516;28;20048;-79
2023/07/16 08:21:21;;;;;;;8.23;3.22;;;19.60;99.90;;;;;;5070366;28;20138;-79
2023/07/16 08:23:49;;;;;;;9.00;3.40;;;19.60;99.90;;;;;;5103503;28;20079;-80
2023/07/16 08:26:19;;;;;;;10.15;3.08;;;19.60;99.90;;;;;;5070902;28;20119;-80
2023/07/16 08:28:45;;;;;;;8.23;3.53;;;19.60;99.90;;;;;;5086466;28;20507;-79
2023/07/16 08:31:12;;;;;;;8.60;3.45;;;19.60;99.90;;;;;;5070247;28;20044;-79
2023/07/16 08:33:39;;;;;;;6.30;3.05;;;19.50;99.90;;;;;;5086699;28;20056;-79
2023/07/16 08:36:06;;;;;;;9.77;3.40;;;19.50;99.90;;;;;;5069687;28;20051;-79
2023/07/16 08:38:33;;;;;;;7.45;3.28;;;19.50;99.90;;;;;;5070044;28;20484;-79
2023/07/16 08:41:00;;;;;;;6.50;3.15;;;19.60;99.90;;;;;;5069765;28;20045;-79
2023/07/16 08:43:29;;;;;;;6.57;3.47;;;19.60;99.90;;;;;;5086449;28;20091;-79
2023/07/16 08:45:56;;;;;;;7.65;3.05;;;19.70;99.90;;;;;;5086177;28;20053;-80
2023/07/16 08:48:24;;;;;;;10.40;3.33;;;19.70;99.90;;;;;;5087753;28;20041;-80
2023/07/16 08:50:51;;;;;;;11.88;3.42;;;19.70;99.90;;;;;;5045125;28;20028;-79
2023/07/16 08:53:18;;;;;;;7.55;3.22;;;19.80;99.90;;;;;;5045126;28;20062;-80
2023/07/16 08:55:45;;;;;;;5.78;3.05;;;20.00;99.90;;;;;;5053738;28;20500;-79
2023/07/16 08:58:17;;;;;;;7.60;2.80;;;20.10;99.90;;;;;;5052593;28;20036;-79
2023/07/16 09:00:48;;;;;;;8.30;3.17;;;20.00;99.90;;;;;;5053835;28;20048;-79
2023/07/16 09:03:18;;;;;;;8.52;3.55;;;20.00;99.90;;;;;;5085824;28;20040;-79
2023/07/16 09:05:45;;;;;;;7.60;2.95;;;19.90;99.90;;;;;;5085826;28;20040;-79
2023/07/16 09:08:13;;;;;;;13.07;3.10;;;19.90;99.90;;;;;;5086272;28;20123;-79
2023/07/16 09:10:43;;;;;;;7.93;3.13;;;20.00;99.90;;;;;;5069700;28;20052;-79
2023/07/16 09:13:10;;;;;;;8.77;3.67;;;20.30;99.90;;;;;;5085870;28;20131;-79
2023/07/16 09:15:38;;;;;;;9.32;3.45;;;20.40;99.90;;;;;;5039106;28;20128;-80
2023/07/16 09:18:05;;;;;;;9.13;3.42;;;20.50;99.90;;;;;;5052970;28;20054;-80
2023/07/16 09:20:31;;;;;;;8.43;3.72;;;20.60;99.90;;;;;;5062395;28;20426;-79
2023/07/16 09:23:01;;;;;;;9.73;3.47;;;20.70;99.90;;;;;;5079335;28;20396;-80
2023/07/16 09:25:29;;;;;;;8.38;3.60;;;20.90;99.90;;;;;;5043047;28;20044;-79
2023/07/16 09:27:58;;;;;;;11.68;3.50;;;20.90;99.90;;;;;;5095456;28;20032;-79
2023/07/16 09:30:25;;;;;;;8.65;3.60;;;20.90;99.90;;;;;;5075943;28;20040;-79
2023/07/16 09:32:51;;;;;;;8.82;3.22;;;21.00;99.90;;;;;;5072926;28;20046;-80
2023/07/16 09:35:18;;;;;;;7.95;3.10;;;21.00;99.90;;;;;;5079263;28;20052;-79
2023/07/16 09:37:45;;;;;;;8.52;3.30;;;21.10;99.90;;;;;;5052802;28;20125;-79
2023/07/16 09:40:12;;;;;;;6.90;3.10;;;21.10;99.90;;;;;;5062758;28;20041;-79
2023/07/16 09:42:43;;;;;;;9.30;3.60;;;21.10;99.90;;;;;;5076456;28;20036;-79
2023/07/16 09:45:19;;;;;;;7.88;3.78;;;20.90;99.90;;;;;;5068563;28;20052;-80
2023/07/16 09:47:46;;;;;;;11.98;4.00;;;20.80;99.90;;;;;;5102450;28;20044;-80
2023/07/16 09:50:14;;;;;;;10.20;3.65;;;20.70;99.90;;;;;;5084687;28;20041;-80
2023/07/16 09:52:42;;;;;;;7.40;3.25;;;20.50;99.90;;;;;;5085763;28;20155;-80
2023/07/16 09:55:10;;;;;;;11.20;4.35;;;20.50;99.90;;;;;;5068427;28;20095;-80
2023/07/16 09:57:41;;;;;;;8.93;3.35;;;20.40;99.90;;;;;;5068078;28;20561;-80
2023/07/16 10:00:13;;;;;;;9.40;3.58;;;20.30;99.90;;;;;;5068669;28;20498;-80
2023/07/16 10:02:41;;;;;;;9.52;3.10;;;20.30;99.90;;;;;;5101807;28;20911;-79
2023/07/16 10:05:15;;;;;;;11.63;3.38;;;20.40;99.90;;;;;;5067853;28;20040;-80
2023/07/16 10:07:43;;;;;;;8.73;3.50;;;20.40;99.90;;;;;;5068604;28;20044;-80
2023/07/16 10:10:11;;;;;;;8.18;3.38;;;20.40;99.90;;;;;;5083354;28;20041;-79
2023/07/16 10:12:41;;;;;;;9.63;3.47;;;20.40;99.90;;;;;;5084189;28;20048;-79
2023/07/16 10:15:07;;;;;;;8.20;3.28;;;20.50;99.90;;;;;;5076025;28;20051;-80
2023/07/16 10:17:34;;;;;;;7.72;3.22;;;20.50;99.90;;;;;;5034188;28;20037;-80
2023/07/16 10:20:10;;;;;;;7.88;3.67;;;20.50;99.90;;;;;;5031971;28;20099;-79
2023/07/16 10:22:38;;;;;;;9.18;3.25;;;20.30;99.90;;;;;;5069869;28;20047;-86
2023/07/16 10:25:10;;;;;;;9.20;3.17;;;20.40;99.90;;;;;;5079286;28;20037;-79
2023/07/16 10:27:37;;;;;;;9.65;3.15;;;20.30;99.90;;;;;;5077519;28;20122;-80
2023/07/16 10:30:05;;;;;;;8.32;3.38;;;20.30;99.90;;;;;;5088766;28;20135;-80
2023/07/16 10:32:33;;;;;;;6.78;2.95;;;20.50;99.90;;;;;;5073669;28;20135;-80
2023/07/16 10:34:59;;;;;;;9.30;3.40;;;20.80;99.90;;;;;;5049836;28;20121;-80
2023/07/16 10:37:26;;;;;;;9.77;3.35;;;20.90;99.90;;;;;;5114684;28;20121;-80
2023/07/16 10:39:58;;;;;;;7.70;2.78;;;21.10;99.90;;;;;;5056879;28;20047;-80
2023/07/16 10:42:26;;;;;;;6.72;2.90;;;21.20;99.90;;;;;;5075362;28;20077;-80
2023/07/16 10:44:55;;;;;;;5.85;3.08;;;21.10;99.90;;;;;;5069517;28;20115;-80
2023/07/16 10:47:36;;;;;;;6.22;3.00;;;20.90;99.90;;;;;;5039308;28;20112;-80
2023/07/16 10:50:08;;;;;;;6.95;2.95;;;20.90;99.90;;;;;;5088964;28;20613;-80
2023/07/16 10:52:37;;;;;;;8.57;3.65;;;20.80;99.90;;;;;;5056329;28;20067;-80
2023/07/16 10:55:04;;;;;;;8.93;3.20;;;21.00;99.90;;;;;;5068271;28;20043;-80
2023/07/16 10:57:31;;;;;;;6.80;3.13;;;21.10;99.90;;;;;;5055870;28;20040;-80
2023/07/16 10:59:58;;;;;;;7.63;3.50;;;21.10;99.90;;;;;;5055805;28;20051;-80
2023/07/16 11:02:26;;;;;;;8.45;3.38;;;21.00;99.90;;;;;;5054888;28;20040;-80
2023/07/16 11:04:53;;;;;;;6.90;3.13;;;20.90;99.90;;;;;;5056000;28;20032;-80
2023/07/16 11:07:21;;;;;;;8.57;2.97;;;20.80;99.90;;;;;;5055067;28;20135;-80
2023/07/16 11:09:50;;;;;;;6.82;3.17;;;20.80;99.90;;;;;;5088364;28;20044;-80
2023/07/16 11:12:24;;;;;;;5.93;3.50;;;20.90;99.90;;;;;;5071551;28;20045;-80
2023/07/16 11:14:55;;;;;;;6.25;3.30;;;20.90;99.90;;;;;;5055552;28;20091;-80
2023/07/16 11:17:24;;;;;;;9.38;3.58;;;21.00;99.90;;;;;;5054326;28;20127;-80
2023/07/16 11:19:53;;;;;;;9.93;3.47;;;21.10;99.90;;;;;;5105252;28;20044;-80
2023/07/16 11:22:24;;;;;;;7.68;3.60;;;21.20;99.90;;;;;;5071629;28;20037;-79
2023/07/16 11:24:51;;;;;;;6.78;3.17;;;21.30;99.90;;;;;;5071834;28;20102;-80
2023/07/16 11:27:23;;;;;;;8.85;3.35;;;21.20;99.90;;;;;;5070989;28;20526;-80
2023/07/16 11:29:57;;;;;;;7.78;3.72;;;21.20;99.90;;;;;;5122657;28;20040;-79
2023/07/16 11:32:28;;;;;;;8.02;3.58;;;21.10;99.90;;;;;;5072075;28;20446;-79
2023/07/16 11:34:55;;;;;;;6.82;3.42;;;21.30;99.90;;;;;;5078605;28;20067;-79
2023/07/16 11:37:24;;;;;;;9.95;3.78;;;21.30;99.90;;;;;;5048182;28;20110;-80
2023/07/16 11:39:54;;;;;;;5.93;3.17;;;21.50;99.90;;;;;;5088825;28;20412;-79
2023/07/16 11:42:31;;;;;;;10.55;3.10;;;21.50;99.90;;;;;;5062003;28;20067;-80
2023/07/16 11:44:59;;;;;;;8.98;3.80;;;21.30;99.90;;;;;;5067507;28;20515;-80
2023/07/16 11:47:26;;;;;;;9.45;3.90;;;21.30;99.90;;;;;;5077028;28;20051;-80
2023/07/16 11:49:53;;;;;;;8.02;3.67;;;21.10;99.90;;;;;;5072334;28;20036;-79
2023/07/16 11:52:26;;;;;;;9.00;4.05;;;21.10;99.90;;;;;;5055400;28;20102;-79
2023/07/16 11:54:54;;;;;;;6.40;3.40;;;21.10;99.90;;;;;;5088793;28;20610;-79
2023/07/16 11:57:20;;;;;;;8.88;3.10;;;21.20;99.90;;;;;;5088245;28;20078;-79
2023/07/16 11:59:47;;;;;;;7.32;3.38;;;21.20;99.90;;;;;;5092727;28;20045;-80
2023/07/16 12:02:14;;;;;;;9.07;3.45;;;21.10;99.90;;;;;;5049852;28;20068;-79
2023/07/16 12:04:41;;;;;;;7.10;3.10;;;21.00;99.90;;;;;;5073016;28;20043;-79
2023/07/16 12:07:08;;;;;;;7.00;3.42;;;20.90;99.90;;;;;;5091234;28;20036;-80
2023/07/16 12:09:35;;;;;;;7.38;3.20;;;20.90;99.90;;;;;;5062571;28;20068;-80
2023/07/16 12:12:02;;;;;;;5.93;3.22;;;20.90;99.90;;;;;;5080021;28;20443;-79
2023/07/16 12:14:29;;;;;;;5.75;3.08;;;20.80;99.90;;;;;;5081441;28;20484;-79
2023/07/16 12:16:56;;;;;;;8.45;3.45;;;20.90;99.90;;;;;;5074209;28;20051;-80
2023/07/16 12:19:24;;;;;;;7.82;3.10;;;20.80;99.90;;;;;;5054418;28;20052;-80
2023/07/16 12:21:51;;;;;;;7.38;3.42;;;20.80;99.90;;;;;;5071177;28;20047;-79
2023/07/16 12:24:18;;;;;;;5.22;2.90;;;20.80;99.90;;;;;;5088010;28;20046;-79
2023/07/16 12:26:45;;;;;;;7.70;3.45;;;20.80;99.90;;;;;;5088015;28;20131;-79
2023/07/16 12:29:11;;;;;;;7.35;3.53;;;20.80;99.90;;;;;;5087736;28;20068;-79
2023/07/16 12:31:38;;;;;;;10.00;3.60;;;20.70;99.90;;;;;;5103939;28;20122;-79
2023/07/16 12:34:05;;;;;;;7.90;3.30;;;20.70;99.90;;;;;;5071309;28;20036;-80
2023/07/16 12:36:31;;;;;;;8.18;3.45;;;20.80;99.90;;;;;;5068430;28;20105;-79
2023/07/16 12:38:58;;;;;;;8.93;3.70;;;20.90;99.90;;;;;;5069932;28;20037;-79
2023/07/16 12:41:25;;;;;;;5.07;3.33;;;20.90;99.90;;;;;;5086495;28;20041;-80
2023/07/16 12:43:51;;;;;;;7.15;3.42;;;20.90;99.90;;;;;;5086056;28;20510;-80
2023/07/16 12:46:18;;;;;;;6.55;3.22;;;21.00;99.90;;;;;;5069938;28;20056;-79
2023/07/16 12:48:45;;;;;;;8.23;3.30;;;21.20;99.90;;;;;;5069217;28;20040;-79